Time;durP1;ratioP1;P1;durP2;ratioP2;P2;SDS_P1;SDS_P2;PMS_P1;PMS_P2;Temp;Humidity;BMP_temperature;BMP_pressure;BME280_temperature;BME280_humidity;BME280_pressure;Samples;Min_cycle;Max_cycle;Signal;HPM_P1;HPM_P2
2021/03/23 00:00:55;;;;;;;48.90;20.05;;;2.40;92.50;;;;;;5076435;28;20226;-63
2021/03/23 00:03:43;;;;;;;32.95;17.42;;;2.30;92.50;;;;;;5085934;28;20232;-63
2021/03/23 00:06:13;;;;;;;39.25;17.15;;;2.40;92.70;;;;;;5080138;28;20219;-63
2021/03/23 00:08:43;;;;;;;50.03;21.40;;;2.20;92.80;;;;;;5097330;28;20222;-63
2021/03/23 00:11:17;;;;;;;38.35;17.60;;;2.30;93.00;;;;;;5096645;28;20209;-63
2021/03/23 00:13:45;;;;;;;42.85;20.17;;;2.00;93.20;;;;;;5087578;28;20242;-64
2021/03/23 00:16:14;;;;;;;41.60;18.05;;;1.90;93.30;;;;;;5077339;28;20658;-64
2021/03/23 00:18:41;;;;;;;43.15;17.92;;;1.90;93.40;;;;;;5077664;28;20495;-64
2021/03/23 00:21:08;;;;;;;33.28;17.25;;;1.80;93.80;;;;;;5090973;28;20243;-64
2021/03/23 00:23:35;;;;;;;34.05;16.58;;;1.60;94.00;;;;;;5086050;28;20225;-64
2021/03/23 00:26:02;;;;;;;32.17;15.30;;;1.80;94.40;;;;;;5083423;28;20222;-64
2021/03/23 00:28:28;;;;;;;22.65;11.88;;;1.50;94.50;;;;;;5082156;28;20555;-64
2021/03/23 00:30:55;;;;;;;26.00;11.75;;;1.50;94.50;;;;;;5097850;28;20206;-63
2021/03/23 00:33:23;;;;;;;20.35;10.20;;;1.50;94.70;;;;;;5082575;28;20240;-64
2021/03/23 00:35:54;;;;;;;18.63;9.77;;;1.60;94.40;;;;;;5087130;28;20636;-64
2021/03/23 00:38:21;;;;;;;23.00;12.55;;;1.60;94.40;;;;;;5077956;28;20218;-64
2021/03/23 00:40:48;;;;;;;24.13;12.40;;;0.80;94.30;;;;;;5077292;28;20206;-65
2021/03/23 00:43:17;;;;;;;25.70;12.82;;;1.60;94.60;;;;;;5076680;28;20221;-64
2021/03/23 00:45:44;;;;;;;22.40;11.27;;;1.70;94.50;;;;;;5091367;28;20206;-64
2021/03/23 00:48:13;;;;;;;16.20;10.27;;;1.80;94.50;;;;;;5092142;28;20210;-64
2021/03/23 00:50:41;;;;;;;16.40;9.35;;;1.90;94.40;;;;;;5088999;28;20206;-65
2021/03/23 00:53:08;;;;;;;18.70;9.85;;;1.80;94.50;;;;;;5084632;28;20214;-64
2021/03/23 00:55:35;;;;;;;20.17;8.70;;;1.70;94.70;;;;;;5077782;28;20405;-63
2021/03/23 00:58:01;;;;;;;17.45;9.43;;;1.70;94.80;;;;;;5077302;28;20226;-64
2021/03/23 01:00:28;;;;;;;17.00;9.38;;;1.80;94.60;;;;;;5078254;28;20270;-65
2021/03/23 01:02:55;;;;;;;15.45;9.57;;;1.80;94.50;;;;;;5087811;28;20226;-64
2021/03/23 01:05:25;;;;;;;17.10;8.40;;;1.90;94.50;;;;;;5077579;28;20210;-64
2021/03/23 01:07:51;;;;;;;17.27;9.85;;;1.90;94.40;;;;;;5089217;28;20517;-64
2021/03/23 01:10:20;;;;;;;13.40;8.50;;;1.90;94.40;;;;;;5082728;28;20225;-64
2021/03/23 01:12:47;;;;;;;11.32;9.70;;;1.80;94.40;;;;;;5079805;28;20249;-65
2021/03/23 01:15:19;;;;;;;14.63;7.82;;;1.90;94.40;;;;;;5088488;28;20293;-64
2021/03/23 01:17:46;;;;;;;14.68;8.75;;;1.70;94.60;;;;;;5088092;28;20265;-63
2021/03/23 01:20:16;;;;;;;19.70;8.88;;;1.60;94.80;;;;;;5081823;28;20272;-63
2021/03/23 01:22:42;;;;;;;17.80;8.30;;;1.60;95.00;;;;;;5087553;28;20214;-63
2021/03/23 01:25:09;;;;;;;13.38;8.65;;;1.50;95.10;;;;;;5083823;28;20206;-63
2021/03/23 01:27:36;;;;;;;16.60;9.15;;;1.40;95.20;;;;;;5086499;28;20577;-64
2021/03/23 01:30:05;;;;;;;14.18;9.73;;;1.50;95.10;;;;;;5082919;28;20202;-63
2021/03/23 01:32:32;;;;;;;11.45;8.00;;;1.20;95.80;;;;;;5083173;28;20206;-64
2021/03/23 01:34:59;;;;;;;13.48;8.20;;;1.40;95.90;;;;;;5075231;28;20269;-64
2021/03/23 01:37:25;;;;;;;12.70;8.30;;;1.40;95.50;;;;;;5077103;28;20786;-63
2021/03/23 01:39:52;;;;;;;13.02;7.07;;;1.50;95.20;;;;;;5090060;28;20525;-65
2021/03/23 01:42:20;;;;;;;11.93;8.07;;;1.20;95.70;;;;;;5095223;28;20202;-65
2021/03/23 01:45:07;;;;;;;14.68;7.63;;;1.20;95.80;;;;;;5080579;28;20232;-65
2021/03/23 01:47:33;;;;;;;14.55;8.70;;;1.10;96.30;;;;;;5084093;28;20312;-64
2021/03/23 01:50:01;;;;;;;13.32;7.72;;;1.20;96.00;;;;;;5083958;28;20337;-63
2021/03/23 01:52:28;;;;;;;17.08;8.70;;;1.20;95.90;;;;;;5084651;28;20505;-65
2021/03/23 01:55:00;;;;;;;14.73;8.32;;;1.30;95.90;;;;;;5087039;28;20202;-64
2021/03/23 01:57:29;;;;;;;9.27;6.70;;;1.30;96.30;;;;;;5089992;28;20237;-64
2021/03/23 01:59:57;;;;;;;16.50;8.50;;;1.30;96.10;;;;;;5081359;28;20424;-64
2021/03/23 02:02:28;;;;;;;18.25;8.73;;;1.20;96.00;;;;;;5084776;28;20203;-64
2021/03/23 02:05:09;;;;;;;11.38;8.65;;;1.20;96.00;;;;;;5083237;28;20233;-64
2021/03/23 02:07:40;;;;;;;13.88;7.03;;;1.20;96.30;;;;;;5081695;28;20382;-64
2021/03/23 02:10:08;;;;;;;16.10;7.50;;;1.30;96.20;;;;;;5089414;28;20524;-65
2021/03/23 02:12:34;;;;;;;20.23;9.48;;;1.30;96.10;;;;;;5080380;28;20206;-65
2021/03/23 02:15:01;;;;;;;19.00;7.57;;;1.30;96.20;;;;;;5081161;28;20225;-65
2021/03/23 02:17:36;;;;;;;15.23;9.18;;;1.10;96.50;;;;;;5078382;28;20233;-65
2021/03/23 02:20:13;;;;;;;18.92;7.30;;;1.20;96.40;;;;;;5084702;28;20454;-65
2021/03/23 02:22:43;;;;;;;11.23;7.10;;;1.20;96.40;;;;;;5089041;28;20612;-65
2021/03/23 02:25:30;;;;;;;11.73;8.20;;;1.40;96.10;;;;;;5095465;28;20234;-64
2021/03/23 02:27:57;;;;;;;14.85;6.93;;;1.40;95.90;;;;;;5085146;28;20222;-65
2021/03/23 02:30:32;;;;;;;11.75;7.70;;;1.70;96.50;;;;;;5078179;28;20214;-65
2021/03/23 02:32:59;;;;;;;14.20;8.20;;;1.20;96.60;;;;;;5079709;28;20240;-65
2021/03/23 02:35:30;;;;;;;16.48;8.85;;;1.10;96.80;;;;;;5083157;28;20226;-65
2021/03/23 02:37:58;;;;;;;24.17;8.80;;;1.20;96.70;;;;;;5088299;28;20214;-65
2021/03/23 02:40:26;;;;;;;17.08;9.80;;;1.20;96.80;;;;;;5081024;28;20214;-65
2021/03/23 02:42:53;;;;;;;14.45;9.07;;;1.30;96.70;;;;;;5089474;28;20223;-65
2021/03/23 02:45:20;;;;;;;14.18;9.05;;;1.30;96.60;;;;;;5080149;28;20211;-65
2021/03/23 02:47:48;;;;;;;18.10;9.00;;;1.20;96.70;;;;;;5079727;28;20215;-65
2021/03/23 02:50:15;;;;;;;19.02;9.50;;;1.10;97.00;;;;;;5084396;28;20207;-66
2021/03/23 02:52:42;;;;;;;15.65;9.63;;;1.10;96.90;;;;;;5083265;28;20209;-65
2021/03/23 02:55:09;;;;;;;14.20;8.20;;;1.20;96.90;;;;;;5084378;28;20547;-66
2021/03/23 02:57:36;;;;;;;22.73;9.63;;;1.10;97.00;;;;;;5079542;28;20239;-65
2021/03/23 03:00:13;;;;;;;19.80;9.30;;;1.20;97.00;;;;;;5087896;28;20210;-65
2021/03/23 03:02:39;;;;;;;14.13;9.70;;;1.20;97.20;;;;;;5082694;28;20216;-66
2021/03/23 03:05:09;;;;;;;14.90;10.13;;;1.10;97.40;;;;;;5084544;28;20292;-70
2021/03/23 03:07:36;;;;;;;19.40;10.88;;;1.10;97.10;;;;;;5078415;28;20249;-65
2021/03/23 03:10:04;;;;;;;12.85;8.63;;;1.30;97.30;;;;;;5086462;28;20283;-65
2021/03/23 03:12:31;;;;;;;26.67;10.55;;;1.10;97.50;;;;;;5084920;28;20207;-65
2021/03/23 03:14:58;;;;;;;13.38;8.25;;;1.20;97.20;;;;;;5079139;28;20203;-64
2021/03/23 03:17:24;;;;;;;17.13;9.32;;;1.40;97.10;;;;;;5092159;28;20230;-64
2021/03/23 03:19:51;;;;;;;12.93;8.07;;;1.50;96.90;;;;;;5095044;28;20202;-65
2021/03/23 03:22:17;;;;;;;16.92;8.73;;;1.60;96.40;;;;;;5087392;28;20281;-65
2021/03/23 03:24:44;;;;;;;18.98;10.60;;;1.70;96.50;;;;;;5094902;28;20496;-64
2021/03/23 03:27:11;;;;;;;17.40;9.88;;;1.80;96.40;;;;;;5096341;28;20317;-65
2021/03/23 03:29:37;;;;;;;18.15;9.23;;;2.00;96.10;;;;;;5095803;28;20477;-65
2021/03/23 03:32:05;;;;;;;17.63;7.38;;;2.00;95.90;;;;;;5090888;28;20202;-66
2021/03/23 03:34:31;;;;;;;17.08;9.50;;;2.10;95.90;;;;;;5079103;28;20389;-65
2021/03/23 03:36:58;;;;;;;15.80;8.25;;;2.10;95.90;;;;;;5088746;28;20243;-66
2021/03/23 03:39:25;;;;;;;17.52;8.85;;;2.00;96.10;;;;;;5087820;28;20194;-65
2021/03/23 03:41:51;;;;;;;20.55;8.88;;;2.10;96.00;;;;;;5079284;28;20203;-65
2021/03/23 03:44:18;;;;;;;17.90;8.60;;;2.20;95.90;;;;;;5078845;28;20210;-64
2021/03/23 03:46:44;;;;;;;18.50;11.15;;;2.40;95.60;;;;;;5077917;28;20207;-65
2021/03/23 03:49:11;;;;;;;16.45;8.48;;;2.50;95.30;;;;;;5079134;28;20206;-65
2021/03/23 03:51:38;;;;;;;16.98;9.23;;;2.70;95.20;;;;;;5086351;28;20241;-65
2021/03/23 03:54:05;;;;;;;17.38;8.50;;;2.50;95.20;;;;;;5087752;28;20203;-65
2021/03/23 03:56:32;;;;;;;14.60;7.43;;;2.60;95.40;;;;;;5089322;28;20222;-65
2021/03/23 03:58:58;;;;;;;19.27;8.43;;;2.70;95.20;;;;;;5090128;28;20261;-64
2021/03/23 04:01:25;;;;;;;15.30;7.93;;;2.70;95.30;;;;;;5088844;28;20207;-65
2021/03/23 04:03:52;;;;;;;12.85;8.20;;;2.60;95.60;;;;;;5090829;28;20218;-65
2021/03/23 04:06:36;;;;;;;22.25;8.90;;;2.70;95.50;;;;;;5087620;28;20199;-65
2021/03/23 04:09:03;;;;;;;15.73;9.25;;;3.60;95.60;;;;;;5077904;28;20421;-65
2021/03/23 04:11:31;;;;;;;17.08;9.27;;;2.90;95.20;;;;;;5078316;28;20207;-66
2021/03/23 04:13:57;;;;;;;15.50;9.30;;;2.90;95.20;;;;;;5097595;28;20270;-66
2021/03/23 04:16:24;;;;;;;13.93;8.10;;;3.10;94.70;;;;;;5084626;28;20510;-66
2021/03/23 04:18:50;;;;;;;13.43;7.97;;;2.80;94.60;;;;;;5077503;28;20230;-66
2021/03/23 04:21:17;;;;;;;16.38;8.00;;;3.10;94.70;;;;;;5080499;28;20401;-67
2021/03/23 04:23:44;;;;;;;13.73;8.55;;;3.10;94.60;;;;;;5081481;28;20661;-66
2021/03/23 04:26:12;;;;;;;12.73;7.78;;;3.10;94.50;;;;;;5088380;28;20213;-66
2021/03/23 04:28:39;;;;;;;13.35;8.00;;;3.00;94.80;;;;;;5083034;28;20230;-66
2021/03/23 04:31:07;;;;;;;10.93;7.80;;;2.90;95.10;;;;;;5090091;28;20201;-65
2021/03/23 04:33:34;;;;;;;11.70;7.68;;;3.00;95.30;;;;;;5077339;28;20283;-65
2021/03/23 04:36:07;;;;;;;20.73;10.05;;;3.10;95.00;;;;;;5077098;28;20306;-66
2021/03/23 04:38:36;;;;;;;13.32;7.15;;;3.10;95.00;;;;;;5079716;28;20235;-65
2021/03/23 04:41:08;;;;;;;16.00;8.82;;;3.20;94.80;;;;;;5078278;28;20234;-66
2021/03/23 04:43:43;;;;;;;13.82;8.25;;;3.40;94.50;;;;;;5077395;28;20258;-65
2021/03/23 04:46:11;;;;;;;15.77;8.20;;;3.30;94.70;;;;;;5089953;28;20210;-65
2021/03/23 04:48:38;;;;;;;11.27;7.28;;;3.10;94.90;;;;;;5075637;28;20212;-65
2021/03/23 04:51:08;;;;;;;15.75;8.32;;;3.10;95.10;;;;;;5077989;28;20211;-65
2021/03/23 04:53:37;;;;;;;15.48;8.77;;;3.60;95.50;;;;;;5077440;28;20220;-64
2021/03/23 04:56:05;;;;;;;15.85;8.70;;;3.10;95.30;;;;;;5078597;28;20204;-64
2021/03/23 04:58:32;;;;;;;14.98;8.50;;;3.10;95.40;;;;;;5076975;28;20225;-65
2021/03/23 05:01:00;;;;;;;17.50;8.82;;;3.10;95.30;;;;;;5082226;28;20361;-64
2021/03/23 05:03:30;;;;;;;18.88;8.15;;;3.20;95.50;;;;;;5076487;28;20204;-66
2021/03/23 05:06:04;;;;;;;14.75;9.10;;;3.20;95.50;;;;;;5090418;28;20246;-66
2021/03/23 05:08:32;;;;;;;16.02;8.88;;;3.30;95.20;;;;;;5076566;28;20428;-66
2021/03/23 05:10:58;;;;;;;17.48;9.85;;;3.50;94.80;;;;;;5076425;28;20221;-65
2021/03/23 05:13:25;;;;;;;14.52;9.27;;;3.70;94.80;;;;;;5077040;28;20205;-64
2021/03/23 05:15:51;;;;;;;16.40;9.15;;;3.50;94.80;;;;;;5079142;28;20568;-65
2021/03/23 05:18:18;;;;;;;13.95;8.75;;;3.80;94.60;;;;;;5090117;28;20486;-66
2021/03/23 05:20:45;;;;;;;17.17;8.02;;;3.70;94.50;;;;;;5077033;28;20291;-65
2021/03/23 05:23:13;;;;;;;18.20;9.32;;;3.60;94.90;;;;;;5078256;28;20214;-65
2021/03/23 05:25:41;;;;;;;18.83;9.32;;;3.50;94.90;;;;;;5087813;28;20810;-65
2021/03/23 05:28:09;;;;;;;16.90;9.30;;;3.50;95.20;;;;;;5076078;28;20235;-65
2021/03/23 05:30:36;;;;;;;19.63;10.45;;;3.30;95.60;;;;;;5076141;28;20211;-65
2021/03/23 05:33:03;;;;;;;12.15;7.57;;;3.20;95.60;;;;;;5076788;28;20209;-65
2021/03/23 05:35:30;;;;;;;14.43;8.75;;;3.30;95.50;;;;;;5075662;28;20213;-65
2021/03/23 05:37:56;;;;;;;11.15;8.20;;;3.40;95.40;;;;;;5075897;28;20242;-65
2021/03/23 05:40:33;;;;;;;19.55;10.00;;;3.40;95.40;;;;;;5079800;28;20231;-65
2021/03/23 05:43:38;;;;;;;14.30;8.27;;;3.50;95.40;;;;;;5087266;28;20254;-65
2021/03/23 05:46:27;;;;;;;18.05;8.00;;;3.50;95.40;;;;;;5075547;28;20224;-64
2021/03/23 05:49:07;;;;;;;14.77;7.55;;;3.60;95.20;;;;;;5082062;28;20200;-64
2021/03/23 05:52:14;;;;;;;10.85;7.85;;;3.60;95.00;;;;;;5094929;28;20532;-65
2021/03/23 05:54:44;;;;;;;18.65;8.73;;;3.70;95.50;;;;;;5065473;28;20222;-64
2021/03/23 05:57:20;;;;;;;16.00;9.10;;;3.70;95.20;;;;;;5079824;28;20207;-64
2021/03/23 05:59:53;;;;;;;19.50;11.20;;;3.70;95.10;;;;;;5080190;28;20723;-64
2021/03/23 06:02:42;;;;;;;15.43;8.02;;;3.70;95.50;;;;;;5095372;28;20216;-64
2021/03/23 06:05:35;;;;;;;16.40;8.98;;;3.70;96.00;;;;;;5083011;28;20235;-64
2021/03/23 06:08:29;;;;;;;16.95;10.68;;;3.80;96.00;;;;;;5079756;28;20227;-63
2021/03/23 06:11:05;;;;;;;15.40;9.32;;;3.70;95.90;;;;;;5074117;28;20274;-65
2021/03/23 06:14:02;;;;;;;14.65;8.88;;;3.80;95.90;;;;;;5076254;28;20273;-63
2021/03/23 06:16:43;;;;;;;19.73;8.35;;;3.90;95.80;;;;;;5078814;28;20478;-63
2021/03/23 06:19:53;;;;;;;15.50;9.18;;;3.90;95.60;;;;;;5085682;28;20298;-66
2021/03/23 06:22:56;;;;;;;11.55;8.25;;;4.00;95.80;;;;;;5066289;28;20228;-64
2021/03/23 06:25:32;;;;;;;18.85;8.38;;;4.20;95.00;;;;;;5092344;28;20196;-64
2021/03/23 06:28:18;;;;;;;23.25;8.43;;;4.30;94.80;;;;;;5098748;28;20679;-64
2021/03/23 06:30:59;;;;;;;14.73;7.65;;;4.40;94.80;;;;;;5095523;28;20207;-64
2021/03/23 06:33:28;;;;;;;12.80;8.63;;;4.60;94.30;;;;;;5096265;28;20453;-65
2021/03/23 06:36:17;;;;;;;17.02;8.63;;;4.90;94.00;;;;;;5097568;28;20550;-64
2021/03/23 06:38:44;;;;;;;14.88;8.18;;;5.20;93.80;;;;;;5090335;28;20229;-65
2021/03/23 06:41:26;;;;;;;13.00;8.27;;;5.50;92.90;;;;;;5097183;28;20766;-64
2021/03/23 06:44:14;;;;;;;9.52;7.57;;;5.90;92.40;;;;;;5094734;28;20253;-64
2021/03/23 06:46:44;;;;;;;11.70;7.38;;;6.60;90.70;;;;;;5093535;28;20202;-65
2021/03/23 06:49:13;;;;;;;11.43;7.30;;;6.80;90.70;;;;;;5092163;28;20216;-64
2021/03/23 06:52:17;;;;;;;13.02;7.10;;;6.70;90.50;;;;;;5095653;28;20232;-65
2021/03/23 06:55:03;;;;;;;11.82;6.93;;;6.70;90.50;;;;;;5086545;28;20202;-64
2021/03/23 06:57:35;;;;;;;12.23;8.52;;;6.50;90.70;;;;;;5087466;28;20226;-64
2021/03/23 07:00:14;;;;;;;12.05;6.70;;;6.10;91.60;;;;;;5097296;28;20205;-64
2021/03/23 07:02:43;;;;;;;16.02;7.22;;;6.20;91.70;;;;;;5093047;28;20498;-65
2021/03/23 07:05:15;;;;;;;18.20;7.30;;;6.10;91.80;;;;;;5096193;28;20271;-65
2021/03/23 07:08:08;;;;;;;8.25;6.82;;;6.00;92.50;;;;;;5095781;28;20206;-66
2021/03/23 07:10:42;;;;;;;13.13;8.15;;;5.90;92.70;;;;;;5079938;28;20211;-65
2021/03/23 07:13:25;;;;;;;17.00;8.93;;;5.80;93.30;;;;;;5083924;28;20219;-65
2021/03/23 07:15:56;;;;;;;14.00;8.02;;;5.70;93.60;;;;;;5082258;28;20206;-66
2021/03/23 07:18:27;;;;;;;13.20;7.75;;;5.60;94.00;;;;;;5079877;28;20641;-65
2021/03/23 07:20:58;;;;;;;13.60;8.45;;;5.60;94.50;;;;;;5084536;28;20210;-66
2021/03/23 07:23:36;;;;;;;14.20;7.93;;;5.50;95.40;;;;;;5086542;28;20202;-66
2021/03/23 07:26:33;;;;;;;23.23;9.98;;;5.20;96.50;;;;;;5086112;28;20239;-67
2021/03/23 07:29:10;;;;;;;13.75;9.15;;;5.20;97.40;;;;;;5084665;28;20213;-70
2021/03/23 07:31:59;;;;;;;19.88;9.32;;;5.00;97.80;;;;;;5082624;28;20245;-70
2021/03/23 07:34:52;;;;;;;18.27;9.35;;;5.00;98.70;;;;;;5084285;28;20259;-69
2021/03/23 07:37:39;;;;;;;13.10;9.55;;;5.00;98.70;;;;;;5084927;28;20242;-69
2021/03/23 07:40:12;;;;;;;24.13;11.32;;;5.10;99.00;;;;;;5092189;28;20198;-68
2021/03/23 07:42:45;;;;;;;14.10;9.57;;;5.20;99.40;;;;;;5094566;28;20206;-67
2021/03/23 07:45:30;;;;;;;21.42;11.80;;;5.10;98.90;;;;;;5091347;28;20228;-68
2021/03/23 07:48:08;;;;;;;17.52;10.63;;;5.10;99.40;;;;;;5090974;28;20351;-68
2021/03/23 07:50:40;;;;;;;17.77;9.60;;;5.00;99.40;;;;;;5092607;28;20213;-69
2021/03/23 07:53:35;;;;;;;15.93;11.50;;;4.80;99.90;;;;;;5077898;28;20221;-68
2021/03/23 07:56:17;;;;;;;15.65;10.15;;;4.80;99.90;;;;;;5090251;28;20234;-69
2021/03/23 07:59:05;;;;;;;20.92;11.43;;;4.90;99.90;;;;;;5078549;28;20230;-68
2021/03/23 08:01:48;;;;;;;21.27;10.85;;;5.60;99.80;;;;;;5096797;28;20205;-68
2021/03/23 08:04:17;;;;;;;19.40;11.55;;;5.10;99.90;;;;;;5083528;28;20207;-68
2021/03/23 08:07:26;;;;;;;13.85;9.25;;;5.30;99.90;;;;;;5081551;28;20566;-68
2021/03/23 08:09:59;;;;;;;15.07;9.95;;;5.30;99.70;;;;;;5068983;28;20273;-69
2021/03/23 08:12:45;;;;;;;20.15;12.18;;;5.40;99.70;;;;;;5059933;28;20207;-68
2021/03/23 08:15:24;;;;;;;16.33;10.18;;;5.40;99.60;;;;;;5079321;28;20212;-69
2021/03/23 08:18:04;;;;;;;16.98;10.40;;;5.50;99.80;;;;;;5093666;28;20228;-69
2021/03/23 08:20:56;;;;;;;16.90;9.65;;;5.70;98.80;;;;;;5087513;28;20222;-68
2021/03/23 08:23:51;;;;;;;18.08;10.07;;;5.80;98.80;;;;;;5089162;28;20222;-68
2021/03/23 08:27:03;;;;;;;13.07;9.90;;;5.90;98.60;;;;;;5091957;28;20553;-67
2021/03/23 08:30:07;;;;;;;17.38;9.07;;;6.10;98.30;;;;;;5080408;28;20213;-67
2021/03/23 08:32:46;;;;;;;13.23;9.73;;;6.20;98.00;;;;;;5092045;28;20202;-67
2021/03/23 08:35:25;;;;;;;18.80;12.48;;;6.20;98.10;;;;;;5092120;28;20202;-68
2021/03/23 08:38:13;;;;;;;14.07;8.95;;;6.30;97.90;;;;;;5077915;28;20446;-67
2021/03/23 08:40:46;;;;;;;16.77;9.77;;;6.40;98.10;;;;;;5077865;28;20210;-67
2021/03/23 08:43:33;;;;;;;13.20;9.77;;;6.40;98.20;;;;;;5077699;28;20252;-67
2021/03/23 08:46:04;;;;;;;12.32;9.95;;;6.30;98.10;;;;;;5077668;28;20217;-67
2021/03/23 08:48:47;;;;;;;16.58;10.02;;;6.20;98.40;;;;;;5088891;28;20277;-67
2021/03/23 08:51:20;;;;;;;16.30;9.95;;;6.10;98.40;;;;;;5082819;28;20199;-67
2021/03/23 08:54:02;;;;;;;16.30;10.50;;;6.20;98.50;;;;;;5078460;28;20394;-68
2021/03/23 08:56:53;;;;;;;15.13;10.05;;;6.00;99.10;;;;;;5087386;28;20206;-67
2021/03/23 08:59:35;;;;;;;12.63;9.82;;;6.00;99.00;;;;;;5077220;28;20238;-67
2021/03/23 09:02:28;;;;;;;20.00;11.98;;;6.20;98.90;;;;;;5093798;28;20423;-68
2021/03/23 09:04:56;;;;;;;18.45;11.05;;;6.20;99.00;;;;;;5084696;28;20405;-67
2021/03/23 09:07:34;;;;;;;18.45;11.63;;;6.50;98.70;;;;;;5080294;28;20294;-67
2021/03/23 09:10:43;;;;;;;20.52;13.07;;;6.60;99.10;;;;;;5081863;28;20273;-67
2021/03/23 09:13:41;;;;;;;16.67;11.93;;;6.90;98.70;;;;;;5083188;28;20205;-67
2021/03/23 09:16:11;;;;;;;14.70;12.80;;;6.90;99.20;;;;;;5076576;28;20217;-68
2021/03/23 09:19:01;;;;;;;21.65;13.52;;;6.60;99.10;;;;;;5076492;28;20233;-66
2021/03/23 09:21:56;;;;;;;20.17;13.25;;;6.60;99.40;;;;;;5074909;28;20473;-69
2021/03/23 09:24:29;;;;;;;19.75;14.50;;;6.70;99.30;;;;;;5076129;28;20203;-68
2021/03/23 09:26:57;;;;;;;18.73;15.15;;;6.60;99.20;;;;;;5076273;28;20230;-67
2021/03/23 09:29:44;;;;;;;20.85;14.32;;;6.70;99.40;;;;;;5089758;28;20291;-68
2021/03/23 09:32:29;;;;;;;20.15;13.57;;;6.80;99.20;;;;;;5076184;28;20234;-68
2021/03/23 09:35:05;;;;;;;19.35;13.18;;;6.90;99.10;;;;;;5077622;28;20207;-68
2021/03/23 09:37:41;;;;;;;20.90;14.27;;;6.90;98.90;;;;;;5075959;28;20421;-67
2021/03/23 09:40:17;;;;;;;19.35;14.93;;;7.00;99.00;;;;;;5075594;28;20256;-66
2021/03/23 09:43:05;;;;;;;23.10;15.90;;;7.10;98.70;;;;;;5083552;28;20201;-67
2021/03/23 09:45:34;;;;;;;25.70;14.07;;;7.20;98.60;;;;;;5076426;28;20203;-68
2021/03/23 09:48:43;;;;;;;21.65;13.57;;;7.20;98.70;;;;;;5081363;28;20240;-68
2021/03/23 09:51:22;;;;;;;17.25;12.48;;;7.40;98.20;;;;;;5085639;28;20194;-67
2021/03/23 09:53:53;;;;;;;14.88;12.15;;;7.50;97.80;;;;;;5077506;28;20202;-67
2021/03/23 09:56:26;;;;;;;20.08;12.45;;;7.50;97.60;;;;;;5083005;28;20523;-68
2021/03/23 09:59:11;;;;;;;20.20;12.65;;;7.30;97.80;;;;;;5078774;28;20275;-67
2021/03/23 10:01:53;;;;;;;14.32;10.32;;;7.10;98.20;;;;;;5080703;28;20210;-68
2021/03/23 10:04:31;;;;;;;15.93;12.38;;;7.10;98.30;;;;;;5081321;28;20214;-67
2021/03/23 10:06:59;;;;;;;12.50;10.90;;;7.20;98.20;;;;;;5090113;28;20218;-67
2021/03/23 10:09:29;;;;;;;19.77;12.60;;;7.10;98.20;;;;;;5087881;28;20245;-68
2021/03/23 10:11:58;;;;;;;17.13;12.15;;;7.20;98.20;;;;;;5093079;28;20369;-67
2021/03/23 10:14:28;;;;;;;15.00;11.63;;;7.30;98.10;;;;;;5084527;28;20396;-68
2021/03/23 10:17:24;;;;;;;16.73;12.50;;;7.40;98.00;;;;;;5085972;28;20267;-68
2021/03/23 10:19:57;;;;;;;13.02;11.13;;;7.40;97.80;;;;;;5080225;28;21726;-67
2021/03/23 10:22:29;;;;;;;13.73;11.30;;;7.30;97.60;;;;;;5086482;28;20239;-67
2021/03/23 10:24:58;;;;;;;14.73;11.80;;;7.40;97.70;;;;;;5083757;28;20286;-67
2021/03/23 10:27:37;;;;;;;15.70;12.38;;;7.50;97.40;;;;;;5088402;28;20250;-67
2021/03/23 10:30:15;;;;;;;17.58;11.77;;;7.70;97.00;;;;;;5090118;28;20237;-68
2021/03/23 10:32:44;;;;;;;13.27;10.85;;;8.00;96.60;;;;;;5079657;28;20605;-68
2021/03/23 10:35:20;;;;;;;17.13;12.35;;;8.00;96.40;;;;;;5086914;28;20206;-66
2021/03/23 10:37:48;;;;;;;12.73;10.18;;;7.90;96.60;;;;;;5082375;28;20453;-66
2021/03/23 10:40:38;;;;;;;16.95;11.73;;;7.80;96.60;;;;;;5079325;28;20278;-67
2021/03/23 10:43:10;;;;;;;15.48;11.73;;;7.60;96.90;;;;;;5084755;28;20202;-67
2021/03/23 10:45:42;;;;;;;17.13;12.48;;;7.60;97.20;;;;;;5086289;28;20211;-68
2021/03/23 10:48:21;;;;;;;12.25;10.45;;;7.60;96.80;;;;;;5078266;28;20210;-68
2021/03/23 10:51:20;;;;;;;14.68;10.52;;;7.50;97.00;;;;;;5082671;28;20456;-67
2021/03/23 10:54:25;;;;;;;11.70;10.48;;;7.40;97.00;;;;;;5078122;28;20203;-67
2021/03/23 10:56:59;;;;;;;11.90;10.70;;;7.40;96.90;;;;;;5044533;28;20579;-67
2021/03/23 10:59:30;;;;;;;18.20;11.23;;;7.40;96.90;;;;;;5049108;28;20234;-66
2021/03/23 11:02:16;;;;;;;17.55;10.48;;;7.40;97.00;;;;;;5068821;28;20211;-67
2021/03/23 11:05:08;;;;;;;12.30;10.73;;;8.10;97.30;;;;;;5095509;28;20506;-67
2021/03/23 11:07:56;;;;;;;11.70;10.05;;;7.30;97.20;;;;;;5085907;28;20306;-67
2021/03/23 11:10:29;;;;;;;12.25;9.68;;;7.40;96.90;;;;;;5078768;28;20202;-67
2021/03/23 11:12:55;;;;;;;17.15;11.90;;;7.40;97.30;;;;;;5078717;28;20206;-67
2021/03/23 11:15:23;;;;;;;14.65;11.05;;;7.30;97.50;;;;;;5079299;28;20493;-67
2021/03/23 11:17:51;;;;;;;13.82;11.82;;;7.40;97.10;;;;;;5078601;28;20473;-66
2021/03/23 11:20:23;;;;;;;21.73;11.85;;;7.40;97.30;;;;;;5094894;28;20202;-67
2021/03/23 11:22:53;;;;;;;14.52;12.18;;;7.20;97.50;;;;;;5089924;28;20547;-66
2021/03/23 11:25:22;;;;;;;17.92;11.48;;;7.20;97.40;;;;;;5091524;28;20291;-67
2021/03/23 11:27:50;;;;;;;12.55;11.20;;;7.30;97.00;;;;;;5086367;28;20218;-67
2021/03/23 11:30:22;;;;;;;12.98;11.55;;;7.70;96.90;;;;;;5079115;28;20500;-67
2021/03/23 11:32:55;;;;;;;13.30;10.90;;;8.20;95.50;;;;;;5082273;28;20228;-67
2021/03/23 11:35:23;;;;;;;12.13;10.90;;;8.70;94.70;;;;;;5092579;28;20566;-68
2021/03/23 11:37:50;;;;;;;12.50;11.20;;;9.00;94.20;;;;;;5089013;28;20234;-66
2021/03/23 11:40:17;;;;;;;15.13;10.88;;;9.10;93.80;;;;;;5080170;28;20207;-67
2021/03/23 11:42:47;;;;;;;12.68;10.40;;;9.10;93.50;;;;;;5079354;28;20458;-67
2021/03/23 11:45:21;;;;;;;11.18;10.15;;;9.20;93.70;;;;;;5080449;28;20207;-67
2021/03/23 11:48:00;;;;;;;9.95;9.05;;;9.30;93.10;;;;;;5085069;28;20206;-66
2021/03/23 11:50:30;;;;;;;9.70;8.80;;;9.30;92.80;;;;;;5084257;28;20259;-67
2021/03/23 11:52:58;;;;;;;9.77;8.65;;;9.10;93.00;;;;;;5078529;28;20210;-67
2021/03/23 11:55:29;;;;;;;11.18;9.50;;;8.80;93.60;;;;;;5077085;28;20258;-66
2021/03/23 11:57:57;;;;;;;10.30;9.20;;;8.60;94.10;;;;;;5083704;28;20218;-67
2021/03/23 12:00:29;;;;;;;9.00;7.40;;;8.40;94.20;;;;;;5093720;28;20296;-67
2021/03/23 12:02:58;;;;;;;8.65;7.80;;;8.30;94.50;;;;;;5081056;28;20298;-64
2021/03/23 12:05:26;;;;;;;9.95;8.90;;;8.10;94.50;;;;;;5095524;28;20209;-67
2021/03/23 12:08:23;;;;;;;12.88;9.00;;;8.00;94.60;;;;;;5080982;28;20231;-65
2021/03/23 12:11:22;;;;;;;15.60;10.15;;;7.90;94.60;;;;;;5077660;28;20275;-66
2021/03/23 12:14:00;;;;;;;11.02;9.43;;;7.90;95.30;;;;;;5071633;28;20222;-67
2021/03/23 12:16:55;;;;;;;7.80;7.07;;;8.00;94.90;;;;;;5076776;28;20595;-65
2021/03/23 12:19:27;;;;;;;14.02;8.73;;;8.10;94.20;;;;;;5083223;28;20522;-65
2021/03/23 12:21:54;;;;;;;10.25;7.65;;;8.40;94.20;;;;;;5076404;28;20203;-65
2021/03/23 12:24:22;;;;;;;8.95;8.05;;;8.80;93.50;;;;;;5076751;28;20218;-67
2021/03/23 12:26:50;;;;;;;9.70;8.70;;;9.20;92.60;;;;;;5090034;28;20250;-67
2021/03/23 12:29:17;;;;;;;10.93;8.90;;;9.70;91.90;;;;;;5086883;28;20269;-65
2021/03/23 12:31:44;;;;;;;9.75;7.57;;;10.10;90.80;;;;;;5076908;28;20560;-67
2021/03/23 12:34:11;;;;;;;11.45;8.32;;;9.90;90.20;;;;;;5094884;28;20210;-65
2021/03/23 12:36:42;;;;;;;9.00;7.13;;;9.80;91.00;;;;;;5081097;28;20247;-66
2021/03/23 12:39:10;;;;;;;8.68;7.80;;;9.60;90.70;;;;;;5076003;28;20242;-68
2021/03/23 12:41:39;;;;;;;8.00;6.13;;;9.50;91.10;;;;;;5077093;28;20224;-64
2021/03/23 12:44:06;;;;;;;10.60;7.55;;;9.20;90.60;;;;;;5077708;28;20233;-65
2021/03/23 12:46:35;;;;;;;6.80;6.10;;;9.00;90.90;;;;;;5078056;28;20210;-66
2021/03/23 12:49:05;;;;;;;9.20;8.25;;;8.80;91.40;;;;;;5087061;28;20239;-64
2021/03/23 12:51:39;;;;;;;15.88;9.13;;;8.70;92.60;;;;;;5089226;28;20209;-66
2021/03/23 12:54:17;;;;;;;8.68;7.75;;;8.60;93.30;;;;;;5080682;28;20463;-65
2021/03/23 12:56:44;;;;;;;10.95;8.93;;;8.50;93.60;;;;;;5085934;28;20481;-66
2021/03/23 12:59:20;;;;;;;13.13;9.23;;;8.50;93.70;;;;;;5089330;28;20590;-68
2021/03/23 13:01:47;;;;;;;11.02;9.93;;;8.70;93.60;;;;;;5085782;28;20274;-65
2021/03/23 13:04:14;;;;;;;10.00;8.65;;;8.80;93.60;;;;;;5077282;28;20207;-66
2021/03/23 13:06:41;;;;;;;10.80;9.60;;;8.80;93.20;;;;;;5079445;28;20233;-65
2021/03/23 13:09:11;;;;;;;10.60;8.98;;;8.80;92.80;;;;;;5075659;28;20210;-66
2021/03/23 13:11:43;;;;;;;9.43;8.40;;;8.90;92.70;;;;;;5076331;28;20226;-65
2021/03/23 13:14:20;;;;;;;11.85;10.55;;;9.10;92.40;;;;;;5079254;28;20207;-65
2021/03/23 13:16:47;;;;;;;10.10;8.77;;;9.20;92.60;;;;;;5076878;28;20277;-66
2021/03/23 13:19:15;;;;;;;10.43;8.43;;;9.40;91.50;;;;;;5079387;28;20236;-65